createdAt,value
2019-01-30T00:00:01.176Z,947.32
2019-01-30T00:01:01.121Z,947.33
2019-01-30T00:02:01.086Z,947.28
2019-01-30T00:03:00.993Z,947.35
2019-01-30T00:04:00.966Z,947.26
2019-01-30T00:05:00.871Z,947.27
2019-01-30T00:06:00.811Z,947.21
2019-01-30T00:07:00.755Z,947.25
2019-01-30T00:08:00.686Z,947.22
2019-01-30T00:09:00.659Z,947.15
2019-01-30T00:10:00.565Z,947.17
2019-01-30T00:11:00.505Z,947.16
2019-01-30T00:12:00.455Z,947.13
2019-01-30T00:13:00.383Z,947.14
2019-01-30T00:14:00.360Z,947.16
2019-01-30T00:15:00.260Z,947.11
2019-01-30T00:16:00.235Z,947.14
2019-01-30T00:17:00.142Z,947.12
2019-01-30T00:18:00.081Z,947.12
2019-01-30T00:19:00.050Z,947.13
2019-01-30T00:19:59.956Z,947.10
2019-01-30T00:20:59.895Z,947.03
2019-01-30T00:21:59.865Z,947.03
2019-01-30T00:22:59.771Z,947.08
2019-01-30T00:23:59.708Z,947.03
2019-01-30T00:24:59.656Z,946.98
2019-01-30T00:25:59.625Z,946.98
2019-01-30T00:26:59.566Z,946.97
2019-01-30T00:27:59.468Z,946.93
2019-01-30T00:28:59.429Z,946.91
2019-01-30T00:30:04.208Z,946.87
2019-01-30T00:30:59.319Z,946.88
2019-01-30T00:31:59.221Z,946.85
2019-01-30T00:32:59.170Z,946.81
2019-01-30T00:33:59.098Z,946.76
2019-01-30T00:34:59.040Z,946.75
2019-01-30T00:35:59.028Z,946.77
2019-01-30T00:36:58.916Z,946.78
2019-01-30T00:37:58.854Z,946.67
2019-01-30T00:38:58.794Z,946.67
2019-01-30T00:39:58.732Z,946.69
2019-01-30T00:40:58.698Z,946.64
2019-01-30T00:41:58.614Z,946.89
2019-01-30T00:42:58.548Z,946.63
2019-01-30T00:43:58.490Z,946.55
2019-01-30T00:44:58.430Z,946.55
2019-01-30T00:45:58.397Z,946.58
2019-01-30T00:46:58.302Z,946.58
2019-01-30T00:47:58.275Z,946.56
2019-01-30T00:48:58.182Z,946.54
2019-01-30T00:49:58.123Z,946.62
2019-01-30T00:50:58.058Z,946.49
2019-01-30T00:51:58.043Z,946.54
2019-01-30T00:52:57.949Z,946.47
2019-01-30T00:53:57.877Z,946.53
2019-01-30T00:54:57.813Z,946.55
2019-01-30T00:55:57.757Z,946.37
2019-01-30T00:56:57.724Z,946.49
2019-01-30T00:57:57.671Z,946.45
2019-01-30T00:58:57.615Z,946.41
2019-01-30T00:59:57.509Z,946.49
2019-01-30T01:00:58.342Z,946.40
2019-01-30T01:01:57.394Z,946.44
2019-01-30T01:02:57.329Z,946.40
2019-01-30T01:03:57.299Z,946.37
2019-01-30T01:04:57.205Z,946.37
2019-01-30T01:05:57.141Z,946.35
2019-01-30T01:06:57.078Z,946.27
2019-01-30T01:07:57.055Z,946.33
2019-01-30T01:08:56.958Z,946.35
2019-01-30T01:09:56.900Z,946.33
2019-01-30T01:10:56.871Z,946.33
2019-01-30T01:11:56.776Z,946.36
2019-01-30T01:12:56.714Z,946.25
2019-01-30T01:13:56.703Z,946.28
2019-01-30T01:14:56.594Z,946.30
2019-01-30T01:15:56.532Z,946.30
2019-01-30T01:16:56.479Z,946.26
2019-01-30T01:17:56.407Z,946.31
2019-01-30T01:18:56.380Z,946.22
2019-01-30T01:19:56.285Z,946.22
2019-01-30T01:20:56.226Z,946.21
2019-01-30T01:21:56.167Z,946.21
2019-01-30T01:22:56.105Z,946.14
2019-01-30T01:23:56.076Z,946.17
2019-01-30T01:24:55.979Z,946.16
2019-01-30T01:25:55.919Z,946.27
2019-01-30T01:26:55.863Z,946.15
2019-01-30T01:27:55.830Z,946.21
2019-01-30T01:28:55.736Z,946.11
2019-01-30T01:29:55.672Z,946.13
2019-01-30T01:30:55.614Z,946.14
2019-01-30T01:31:55.596Z,946.09
2019-01-30T01:32:55.492Z,946.08
2019-01-30T01:33:55.431Z,946.04
2019-01-30T01:34:55.368Z,945.97
2019-01-30T01:35:55.305Z,946.10
2019-01-30T01:36:55.277Z,945.96
2019-01-30T01:37:55.182Z,945.88
2019-01-30T01:38:55.120Z,945.94
2019-01-30T01:39:55.068Z,945.86
2019-01-30T01:40:55.038Z,945.83
2019-01-30T01:41:54.942Z,945.88
2019-01-30T01:42:54.880Z,945.89
2019-01-30T01:43:54.818Z,945.93
2019-01-30T01:44:54.789Z,945.86
2019-01-30T01:45:54.737Z,945.89
2019-01-30T01:46:54.644Z,945.85
2019-01-30T01:47:54.574Z,945.76
2019-01-30T01:48:54.512Z,945.78
2019-01-30T01:49:54.448Z,945.81
2019-01-30T01:50:54.440Z,945.74
2019-01-30T01:51:54.331Z,945.74
2019-01-30T01:52:54.269Z,945.65
2019-01-30T01:53:54.201Z,945.69
2019-01-30T01:54:54.145Z,945.66
2019-01-30T01:55:54.116Z,945.65
2019-01-30T01:56:54.024Z,945.59
2019-01-30T01:57:53.957Z,945.57
2019-01-30T01:58:53.931Z,945.60
2019-01-30T01:59:53.889Z,945.50
2019-01-30T02:00:53.775Z,945.52
2019-01-30T02:01:53.715Z,945.47
2019-01-30T02:02:53.654Z,945.55
2019-01-30T02:03:53.596Z,945.49
2019-01-30T02:04:53.564Z,945.40
2019-01-30T02:05:53.469Z,945.44
2019-01-30T02:06:53.459Z,945.50
2019-01-30T02:07:53.349Z,945.33
2019-01-30T02:08:53.292Z,945.43
2019-01-30T02:09:53.227Z,945.43
2019-01-30T02:10:53.165Z,945.35
2019-01-30T02:11:53.136Z,945.51
2019-01-30T02:12:53.071Z,945.30
2019-01-30T02:13:52.981Z,945.34
2019-01-30T02:14:52.918Z,945.30
2019-01-30T02:15:52.855Z,945.21
2019-01-30T02:16:52.802Z,945.26
2019-01-30T02:17:52.766Z,945.32
2019-01-30T02:18:52.677Z,945.24
2019-01-30T02:19:52.649Z,945.29
2019-01-30T02:20:52.554Z,945.12
2019-01-30T02:21:52.489Z,945.08
2019-01-30T02:22:52.432Z,945.04
2019-01-30T02:23:52.389Z,945.06
2019-01-30T02:24:52.305Z,945.05
2019-01-30T02:25:52.284Z,945.02
2019-01-30T02:26:52.186Z,944.99
2019-01-30T02:27:52.127Z,944.99
2019-01-30T02:28:52.060Z,944.94
2019-01-30T02:29:51.997Z,944.93
2019-01-30T02:30:51.970Z,944.92
2019-01-30T02:31:51.881Z,944.90
2019-01-30T02:32:51.821Z,944.94
2019-01-30T02:33:51.753Z,944.93
2019-01-30T02:34:51.696Z,944.90
2019-01-30T02:35:51.674Z,944.82
2019-01-30T02:36:51.573Z,944.85
2019-01-30T02:37:51.509Z,944.85
2019-01-30T02:38:51.446Z,944.82
2019-01-30T02:39:51.392Z,944.77
2019-01-30T02:40:51.348Z,944.79
2019-01-30T02:41:51.266Z,944.76
2019-01-30T02:42:51.239Z,944.72
2019-01-30T02:43:51.142Z,944.77
2019-01-30T02:44:51.083Z,944.69
2019-01-30T02:45:51.043Z,944.71
2019-01-30T02:46:50.970Z,944.71
2019-01-30T02:47:50.900Z,944.71
2019-01-30T02:48:50.872Z,944.62
2019-01-30T02:49:50.772Z,944.69
2019-01-30T02:50:50.711Z,944.66
2019-01-30T02:51:50.676Z,944.65
2019-01-30T02:52:50.589Z,944.59
2019-01-30T02:53:50.559Z,944.62
2019-01-30T02:54:50.465Z,944.64
2019-01-30T02:55:50.413Z,944.68
2019-01-30T02:56:50.342Z,944.69
2019-01-30T02:57:50.286Z,944.52
2019-01-30T02:58:50.255Z,944.66
2019-01-30T02:59:50.163Z,944.52
2019-01-30T03:00:58.890Z,944.44
2019-01-30T03:01:50.039Z,944.44
2019-01-30T03:02:49.975Z,944.45
2019-01-30T03:03:49.958Z,944.48
2019-01-30T03:04:49.858Z,944.53
2019-01-30T03:05:49.797Z,944.41
2019-01-30T03:06:49.732Z,944.56
2019-01-30T03:07:49.696Z,944.45
2019-01-30T03:08:49.643Z,944.35
2019-01-30T03:09:49.583Z,944.36
2019-01-30T03:10:49.486Z,944.40
2019-01-30T03:11:49.429Z,944.35
2019-01-30T03:12:49.365Z,944.52
2019-01-30T03:13:49.336Z,944.37
2019-01-30T03:14:49.239Z,944.27
2019-01-30T03:15:49.217Z,944.31
2019-01-30T03:16:49.121Z,944.24
2019-01-30T03:17:49.055Z,944.25
2019-01-30T03:18:48.992Z,944.28
2019-01-30T03:19:48.938Z,944.13
2019-01-30T03:20:48.911Z,944.19
2019-01-30T03:21:48.812Z,944.11
2019-01-30T03:22:48.747Z,944.12
2019-01-30T03:23:48.691Z,944.11
2019-01-30T03:24:48.632Z,944.05
2019-01-30T03:25:48.597Z,944.07
2019-01-30T03:26:48.505Z,944.05
2019-01-30T03:27:48.473Z,944.10
2019-01-30T03:28:48.389Z,943.94
2019-01-30T03:29:48.323Z,944.01
2019-01-30T03:30:48.259Z,943.86
2019-01-30T03:31:48.208Z,943.86
2019-01-30T03:32:48.336Z,943.71
2019-01-30T03:33:48.073Z,943.81
2019-01-30T03:34:48.049Z,943.68
2019-01-30T03:35:47.953Z,943.80
2019-01-30T03:36:47.893Z,943.79
2019-01-30T03:37:47.827Z,943.68
2019-01-30T03:38:47.774Z,943.62
2019-01-30T03:39:47.739Z,943.81
2019-01-30T03:40:47.650Z,943.70
2019-01-30T03:41:47.581Z,943.76
2019-01-30T03:42:47.522Z,943.63
2019-01-30T03:43:47.500Z,943.54
2019-01-30T03:44:47.433Z,943.69
2019-01-30T03:45:47.339Z,943.70
2019-01-30T03:46:47.279Z,943.61
2019-01-30T03:47:47.222Z,943.65
2019-01-30T03:48:47.159Z,943.68
2019-01-30T03:49:47.129Z,943.69
2019-01-30T03:50:47.067Z,943.70
2019-01-30T03:51:46.972Z,943.59
2019-01-30T03:52:46.914Z,943.68
2019-01-30T03:53:46.854Z,943.51
2019-01-30T03:54:46.821Z,943.60
2019-01-30T03:55:46.738Z,943.58
2019-01-30T03:56:46.667Z,943.50
2019-01-30T03:57:46.602Z,943.55
2019-01-30T03:58:46.541Z,943.48
2019-01-30T03:59:46.518Z,943.60
2019-01-30T04:00:46.423Z,943.44
2019-01-30T04:01:46.362Z,943.44
2019-01-30T04:02:46.350Z,943.67
2019-01-30T04:03:46.236Z,943.45
2019-01-30T04:04:46.209Z,943.41
2019-01-30T04:05:46.146Z,943.55
2019-01-30T04:06:46.052Z,943.36
2019-01-30T04:07:45.988Z,943.37
2019-01-30T04:08:45.934Z,943.39
2019-01-30T04:09:45.870Z,943.34
2019-01-30T04:10:45.845Z,943.43
2019-01-30T04:11:45.742Z,943.34
2019-01-30T04:12:45.689Z,943.35
2019-01-30T04:13:45.624Z,943.29
2019-01-30T04:14:45.560Z,943.38
2019-01-30T04:15:45.535Z,943.35
2019-01-30T04:16:45.440Z,943.34
2019-01-30T04:17:45.505Z,943.30
2019-01-30T04:18:45.351Z,943.34
2019-01-30T04:19:45.255Z,943.29
2019-01-30T04:20:45.194Z,943.25
2019-01-30T04:21:45.134Z,943.21
2019-01-30T04:22:45.069Z,943.20
2019-01-30T04:23:45.042Z,943.33
2019-01-30T04:24:44.943Z,943.42
2019-01-30T04:25:44.926Z,943.16
2019-01-30T04:26:44.826Z,943.11
2019-01-30T04:27:44.763Z,943.07
2019-01-30T04:28:44.701Z,942.90
2019-01-30T04:29:44.636Z,942.97
2019-01-30T04:30:44.628Z,943.10
2019-01-30T04:31:44.528Z,943.04
2019-01-30T04:32:44.463Z,942.97
2019-01-30T04:33:44.396Z,942.96
2019-01-30T04:34:44.333Z,943.18
2019-01-30T04:35:44.315Z,943.05
2019-01-30T04:36:44.210Z,943.09
2019-01-30T04:37:44.148Z,942.98
2019-01-30T04:38:44.090Z,943.09
2019-01-30T04:39:44.025Z,943.07
2019-01-30T04:40:44.002Z,943.26
2019-01-30T04:41:43.905Z,942.95
2019-01-30T04:42:43.843Z,942.93
2019-01-30T04:43:43.786Z,942.83
2019-01-30T04:44:43.749Z,943.12
2019-01-30T04:45:43.654Z,943.09
2019-01-30T04:46:43.633Z,942.96
2019-01-30T04:47:43.535Z,942.96
2019-01-30T04:48:43.473Z,942.96
2019-01-30T04:49:43.416Z,942.95
2019-01-30T04:50:43.383Z,942.99
2019-01-30T04:51:43.325Z,943.02
2019-01-30T04:52:43.273Z,942.89
2019-01-30T04:53:43.171Z,942.90
2019-01-30T04:54:43.210Z,943.27
2019-01-30T04:55:43.048Z,942.89
2019-01-30T04:56:42.987Z,942.97
2019-01-30T04:57:42.957Z,942.96
2019-01-30T04:58:42.860Z,942.94
2019-01-30T04:59:42.801Z,942.98
2019-01-30T05:00:42.739Z,942.98
2019-01-30T05:01:49.534Z,942.96
2019-01-30T05:02:42.642Z,942.99
2019-01-30T05:03:42.584Z,943.00
2019-01-30T05:04:42.491Z,943.18
2019-01-30T05:05:42.438Z,942.95
2019-01-30T05:06:42.370Z,943.11
2019-01-30T05:07:42.308Z,943.15
2019-01-30T05:08:42.287Z,943.01
2019-01-30T05:09:42.194Z,942.95
2019-01-30T05:10:42.125Z,942.96
2019-01-30T05:11:42.068Z,942.91
2019-01-30T05:12:42.005Z,942.76
2019-01-30T05:13:41.969Z,943.06
2019-01-30T05:14:41.886Z,942.81
2019-01-30T05:15:41.857Z,942.77
2019-01-30T05:16:41.753Z,942.86
2019-01-30T05:17:41.691Z,943.00
2019-01-30T05:18:41.634Z,943.05
2019-01-30T05:19:41.570Z,942.80
2019-01-30T05:20:41.550Z,943.17
2019-01-30T05:21:41.461Z,942.89
2019-01-30T05:22:41.389Z,942.97
2019-01-30T05:23:41.327Z,942.93
2019-01-30T05:24:41.268Z,942.98
2019-01-30T05:25:41.251Z,943.07
2019-01-30T05:26:41.144Z,942.99
2019-01-30T05:27:41.088Z,942.98
2019-01-30T05:28:41.019Z,942.92
2019-01-30T05:29:40.959Z,942.97
2019-01-30T05:30:40.936Z,943.07
2019-01-30T05:31:40.843Z,943.00
2019-01-30T05:32:40.775Z,943.03
2019-01-30T05:33:40.715Z,942.98
2019-01-30T05:34:40.649Z,943.02
2019-01-30T05:35:40.629Z,942.91
2019-01-30T05:36:40.540Z,943.03
2019-01-30T05:37:40.464Z,943.09
2019-01-30T05:38:40.407Z,943.04
2019-01-30T05:39:40.340Z,943.00
2019-01-30T05:40:40.317Z,943.09
2019-01-30T05:41:40.254Z,943.04
2019-01-30T05:42:40.158Z,943.07
2019-01-30T05:43:42.536Z,942.93
2019-01-30T05:44:40.038Z,943.00
2019-01-30T05:45:39.971Z,942.94
2019-01-30T05:46:39.946Z,942.91
2019-01-30T05:47:39.852Z,942.88
2019-01-30T05:48:39.791Z,942.86
2019-01-30T05:49:39.725Z,942.88
2019-01-30T05:50:39.711Z,942.90
2019-01-30T05:51:39.608Z,942.87
2019-01-30T05:52:39.542Z,942.90
2019-01-30T05:53:39.482Z,942.91
2019-01-30T05:54:39.421Z,942.97
2019-01-30T05:55:39.484Z,942.88
2019-01-30T05:56:39.298Z,942.85
2019-01-30T05:57:39.234Z,942.84
2019-01-30T05:58:39.177Z,942.80
2019-01-30T05:59:39.114Z,942.74
2019-01-30T06:00:39.093Z,942.79
2019-01-30T06:01:38.990Z,942.76
2019-01-30T06:02:38.928Z,942.77
2019-01-30T06:03:38.905Z,942.61
2019-01-30T06:04:38.805Z,942.72
2019-01-30T06:05:38.752Z,942.73
2019-01-30T06:06:38.686Z,942.62
2019-01-30T06:07:38.720Z,942.70
2019-01-30T06:08:38.620Z,942.69
2019-01-30T06:09:38.502Z,942.72
2019-01-30T06:10:38.440Z,942.82
2019-01-30T06:11:38.379Z,942.77
2019-01-30T06:12:38.321Z,942.84
2019-01-30T06:13:38.286Z,942.93
2019-01-30T06:14:38.198Z,942.92
2019-01-30T06:15:38.165Z,942.87
2019-01-30T06:16:38.073Z,942.92
2019-01-30T06:17:38.011Z,942.88
2019-01-30T06:18:37.950Z,943.00
2019-01-30T06:19:37.892Z,942.98
2019-01-30T06:20:37.862Z,942.96
2019-01-30T06:21:37.810Z,942.93
2019-01-30T06:22:37.710Z,942.99
2019-01-30T06:23:37.658Z,943.01
2019-01-30T06:24:37.582Z,943.02
2019-01-30T06:25:37.525Z,942.99
2019-01-30T06:26:37.497Z,942.97
2019-01-30T06:27:37.416Z,942.97
2019-01-30T06:28:37.346Z,942.97
2019-01-30T06:29:37.275Z,942.99
2019-01-30T06:30:37.249Z,942.92
2019-01-30T06:31:37.162Z,942.94
2019-01-30T06:32:37.131Z,942.96
2019-01-30T06:33:37.035Z,942.96
2019-01-30T06:34:36.976Z,942.95
2019-01-30T06:35:36.928Z,942.93
2019-01-30T06:36:36.883Z,942.94
2019-01-30T06:37:36.785Z,942.96
2019-01-30T06:38:36.766Z,942.95
2019-01-30T06:39:36.663Z,942.95
2019-01-30T06:40:36.608Z,942.93
2019-01-30T06:41:36.540Z,942.93
2019-01-30T06:42:36.478Z,942.94
2019-01-30T06:43:36.452Z,942.97
2019-01-30T06:44:36.358Z,942.93
2019-01-30T06:45:36.298Z,942.88
2019-01-30T06:46:36.238Z,942.91
2019-01-30T06:47:36.222Z,942.83
2019-01-30T06:48:36.120Z,942.87
2019-01-30T06:49:36.052Z,942.87
2019-01-30T06:50:35.991Z,942.91
2019-01-30T06:51:35.931Z,942.94
2019-01-30T06:52:35.908Z,942.83
2019-01-30T06:53:35.808Z,942.91
2019-01-30T06:54:35.751Z,942.93
2019-01-30T06:55:35.689Z,942.86
2019-01-30T06:56:35.688Z,942.85
2019-01-30T06:57:35.567Z,942.84
2019-01-30T06:58:35.540Z,942.86
2019-01-30T06:59:35.443Z,942.89
2019-01-30T07:00:35.384Z,942.86
2019-01-30T07:01:35.383Z,942.87
2019-01-30T07:02:35.259Z,942.78
2019-01-30T07:03:35.228Z,942.76
2019-01-30T07:04:35.133Z,942.77
2019-01-30T07:05:35.075Z,942.78
2019-01-30T07:06:35.015Z,942.79
2019-01-30T07:07:34.955Z,942.86
2019-01-30T07:08:34.939Z,942.84
2019-01-30T07:09:34.834Z,942.85
2019-01-30T07:10:34.800Z,942.90
2019-01-30T07:11:34.713Z,942.89
2019-01-30T07:12:34.647Z,942.87
2019-01-30T07:13:34.586Z,942.98
2019-01-30T07:14:34.561Z,942.87
2019-01-30T07:15:34.464Z,942.85
2019-01-30T07:16:34.402Z,942.88
2019-01-30T07:17:34.339Z,942.88
2019-01-30T07:18:34.281Z,942.91
2019-01-30T07:19:34.251Z,942.89
2019-01-30T07:20:34.160Z,942.97
2019-01-30T07:21:34.098Z,942.95
2019-01-30T07:22:34.036Z,942.91
2019-01-30T07:23:34.005Z,942.95
2019-01-30T07:24:33.916Z,942.92
2019-01-30T07:25:33.853Z,942.95
2019-01-30T07:26:33.790Z,942.93
2019-01-30T07:27:33.732Z,942.98
2019-01-30T07:28:33.700Z,942.94
2019-01-30T07:29:33.606Z,942.96
2019-01-30T07:30:33.545Z,942.99
2019-01-30T07:31:33.484Z,942.98
2019-01-30T07:32:42.176Z,942.99
2019-01-30T07:33:33.403Z,943.00
2019-01-30T07:34:33.299Z,943.02
2019-01-30T07:35:33.240Z,943.03
2019-01-30T07:36:33.179Z,943.00
2019-01-30T07:37:33.118Z,943.03
2019-01-30T07:38:33.136Z,942.97
2019-01-30T07:39:33.002Z,943.04
2019-01-30T07:40:32.934Z,943.06
2019-01-30T07:41:32.875Z,943.02
2019-01-30T07:42:32.810Z,943.00
2019-01-30T07:43:32.785Z,942.99
2019-01-30T07:44:32.690Z,943.01
2019-01-30T07:45:32.628Z,943.01
2019-01-30T07:46:32.568Z,942.96
2019-01-30T07:47:32.536Z,942.99
2019-01-30T07:48:32.444Z,942.96
2019-01-30T07:49:32.385Z,942.97
2019-01-30T07:50:32.351Z,942.95
2019-01-30T07:51:32.264Z,942.96
2019-01-30T07:52:32.799Z,942.93
2019-01-30T07:53:32.138Z,942.98
2019-01-30T07:54:32.109Z,942.94
2019-01-30T07:55:32.022Z,942.87
2019-01-30T07:56:31.964Z,942.91
2019-01-30T07:57:31.896Z,942.92
2019-01-30T07:58:31.833Z,942.85
2019-01-30T07:59:32.161Z,942.87
2019-01-30T08:00:31.711Z,942.87
2019-01-30T08:01:31.651Z,942.84
2019-01-30T08:02:31.591Z,942.78
2019-01-30T08:03:31.528Z,942.86
2019-01-30T08:04:31.498Z,942.87
2019-01-30T08:05:31.406Z,942.86
2019-01-30T08:06:31.347Z,942.87
2019-01-30T08:07:31.286Z,942.86
2019-01-30T08:08:31.222Z,942.89
2019-01-30T08:09:31.197Z,942.88
2019-01-30T08:10:31.140Z,943.00
2019-01-30T08:11:33.032Z,942.97
2019-01-30T08:12:30.980Z,942.93
2019-01-30T08:13:30.970Z,942.95
2019-01-30T08:14:30.869Z,942.98
2019-01-30T08:15:30.842Z,942.98
2019-01-30T08:16:30.737Z,942.94
2019-01-30T08:17:30.675Z,942.98
2019-01-30T08:18:30.613Z,943.07
2019-01-30T08:19:30.558Z,943.01
2019-01-30T08:20:30.528Z,942.96
2019-01-30T08:21:30.440Z,942.97
2019-01-30T08:22:30.383Z,942.98
2019-01-30T08:23:30.314Z,942.91
2019-01-30T08:24:30.703Z,942.98
2019-01-30T08:25:30.254Z,942.95
2019-01-30T08:26:30.466Z,943.00
2019-01-30T08:27:30.256Z,943.00
2019-01-30T08:28:30.440Z,943.08
2019-01-30T08:29:30.119Z,943.05
2019-01-30T08:30:30.070Z,943.09
2019-01-30T08:31:30.308Z,942.97
2019-01-30T08:32:29.972Z,943.07
2019-01-30T08:33:29.700Z,943.05
2019-01-30T08:34:29.635Z,943.06
2019-01-30T08:35:29.606Z,943.08
2019-01-30T08:36:29.547Z,943.07
2019-01-30T08:37:29.456Z,943.03
2019-01-30T08:38:29.399Z,942.95
2019-01-30T08:39:29.334Z,943.01
2019-01-30T08:40:29.270Z,942.96
2019-01-30T08:41:29.245Z,942.99
2019-01-30T08:42:29.157Z,942.90
2019-01-30T08:43:29.089Z,942.96
2019-01-30T08:44:29.032Z,942.92
2019-01-30T08:45:28.968Z,942.98
2019-01-30T08:46:28.942Z,942.94
2019-01-30T08:47:28.843Z,942.93
2019-01-30T08:48:30.209Z,943.01
2019-01-30T08:49:28.725Z,942.97
2019-01-30T08:50:28.701Z,943.00
2019-01-30T08:51:28.602Z,942.90
2019-01-30T08:52:28.547Z,942.92
2019-01-30T08:53:28.542Z,942.87
2019-01-30T08:54:28.418Z,942.91
2019-01-30T08:55:28.397Z,942.93
2019-01-30T08:56:28.328Z,942.92
2019-01-30T08:57:28.237Z,942.96
2019-01-30T08:58:28.173Z,942.90
2019-01-30T08:59:28.113Z,942.89
2019-01-30T09:00:28.052Z,942.92
2019-01-30T09:01:28.021Z,942.86
2019-01-30T09:02:27.930Z,942.95
2019-01-30T09:03:27.902Z,942.92
2019-01-30T09:04:27.807Z,942.88
2019-01-30T09:05:27.748Z,942.86
2019-01-30T09:06:27.685Z,942.85
2019-01-30T09:07:27.658Z,942.92
2019-01-30T09:08:27.562Z,942.90
2019-01-30T09:09:27.504Z,942.92
2019-01-30T09:10:27.450Z,943.09
2019-01-30T09:11:27.380Z,942.90
2019-01-30T09:12:27.359Z,942.97
2019-01-30T09:13:27.261Z,942.97
2019-01-30T09:14:27.202Z,942.80
2019-01-30T09:15:27.138Z,942.87
2019-01-30T09:16:27.083Z,942.76
2019-01-30T09:17:27.054Z,942.85
2019-01-30T09:18:26.956Z,942.87
2019-01-30T09:19:26.903Z,942.81
2019-01-30T09:20:26.839Z,942.80
2019-01-30T09:21:26.771Z,942.77
2019-01-30T09:22:26.744Z,942.73
2019-01-30T09:23:26.657Z,942.74
2019-01-30T09:24:26.596Z,942.75
2019-01-30T09:25:26.529Z,942.77
2019-01-30T09:26:26.502Z,942.81
2019-01-30T09:27:26.410Z,942.78
2019-01-30T09:28:26.350Z,942.74
2019-01-30T09:29:26.324Z,942.81
2019-01-30T09:30:26.234Z,942.76
2019-01-30T09:31:26.164Z,942.72
2019-01-30T09:32:26.107Z,942.78
2019-01-30T09:33:26.374Z,942.77
2019-01-30T09:34:26.017Z,942.69
2019-01-30T09:35:25.925Z,942.74
2019-01-30T09:36:25.868Z,942.70
2019-01-30T09:37:27.326Z,942.71
2019-01-30T09:38:25.770Z,942.70
2019-01-30T09:39:25.678Z,942.83
2019-01-30T09:40:25.655Z,942.72
2019-01-30T09:41:25.567Z,942.69
2019-01-30T09:42:25.499Z,942.75
2019-01-30T09:43:25.507Z,942.74
2019-01-30T09:44:25.397Z,942.78
2019-01-30T09:45:25.331Z,942.68
2019-01-30T09:46:25.257Z,942.68
2019-01-30T09:47:25.191Z,942.79
2019-01-30T09:48:25.171Z,942.78
2019-01-30T09:49:25.075Z,942.74
2019-01-30T09:50:25.053Z,942.84
2019-01-30T09:51:24.981Z,942.88
2019-01-30T09:52:26.872Z,942.81
2019-01-30T09:53:24.861Z,942.80
2019-01-30T09:54:24.774Z,942.78
2019-01-30T09:55:24.735Z,942.82
2019-01-30T09:56:24.672Z,942.84
2019-01-30T09:57:24.590Z,942.76
2019-01-30T09:58:24.528Z,942.83
2019-01-30T09:59:24.469Z,942.77
2019-01-30T10:00:24.446Z,942.75
2019-01-30T10:01:24.383Z,942.84
2019-01-30T10:02:25.499Z,942.81
2019-01-30T10:03:24.226Z,942.76
2019-01-30T10:04:24.170Z,942.77
2019-01-30T10:05:24.106Z,942.82
2019-01-30T10:06:24.081Z,942.80
2019-01-30T10:07:23.985Z,942.74
2019-01-30T10:08:23.941Z,942.83
2019-01-30T10:09:23.864Z,942.91
2019-01-30T10:10:23.804Z,942.83
2019-01-30T10:11:23.786Z,942.80
2019-01-30T10:12:23.684Z,942.75
2019-01-30T10:13:23.623Z,942.72
2019-01-30T10:14:23.570Z,942.70
2019-01-30T10:15:23.510Z,942.72
2019-01-30T10:16:23.488Z,942.70
2019-01-30T10:17:23.384Z,942.74
2019-01-30T10:18:23.321Z,942.70
2019-01-30T10:19:23.263Z,942.67
2019-01-30T10:20:23.202Z,942.71
2019-01-30T10:21:23.171Z,942.64
2019-01-30T10:22:23.134Z,942.57
2019-01-30T10:23:23.022Z,942.56
2019-01-30T10:24:22.967Z,942.63
2019-01-30T10:25:22.902Z,942.57
2019-01-30T10:26:22.840Z,942.66
2019-01-30T10:27:22.823Z,942.65
2019-01-30T10:28:22.725Z,942.72
2019-01-30T10:29:22.663Z,942.65
2019-01-30T10:30:22.598Z,942.69
2019-01-30T10:31:22.543Z,942.76
2019-01-30T10:32:22.509Z,942.74
2019-01-30T10:33:22.457Z,942.73
2019-01-30T10:34:22.361Z,942.70
2019-01-30T10:35:22.297Z,942.70
2019-01-30T10:36:22.263Z,942.80
2019-01-30T10:37:22.182Z,942.76
2019-01-30T10:38:22.125Z,942.76
2019-01-30T10:39:22.094Z,942.81
2019-01-30T10:40:22.010Z,942.81
2019-01-30T10:41:21.942Z,942.82
2019-01-30T10:42:21.880Z,942.81
2019-01-30T10:43:21.854Z,942.87
2019-01-30T10:44:21.759Z,942.86
2019-01-30T10:45:21.735Z,942.86
2019-01-30T10:46:21.728Z,942.83
2019-01-30T10:47:21.622Z,942.88
2019-01-30T10:48:21.518Z,942.77
2019-01-30T10:49:21.456Z,942.87
2019-01-30T10:50:21.401Z,942.80
2019-01-30T10:51:21.343Z,942.83
2019-01-30T10:52:21.331Z,942.95
2019-01-30T10:53:21.213Z,942.91
2019-01-30T10:54:21.155Z,942.80
2019-01-30T10:55:21.095Z,942.87
2019-01-30T10:56:21.036Z,942.84
2019-01-30T10:57:21.015Z,942.81
2019-01-30T10:58:21.001Z,942.89
2019-01-30T10:59:20.854Z,942.93
2019-01-30T11:00:20.796Z,942.82
2019-01-30T11:01:20.738Z,942.81
2019-01-30T11:02:20.677Z,942.78
2019-01-30T11:03:20.659Z,942.82
2019-01-30T11:04:20.560Z,942.87
2019-01-30T11:05:20.502Z,942.87
2019-01-30T11:06:20.445Z,942.92
2019-01-30T11:07:20.514Z,942.87
2019-01-30T11:08:20.355Z,942.83
2019-01-30T11:09:20.261Z,942.81
2019-01-30T11:10:20.243Z,942.93
2019-01-30T11:11:20.159Z,942.90
2019-01-30T11:12:20.076Z,942.87
2019-01-30T11:13:20.056Z,942.83
2019-01-30T11:14:19.982Z,942.77
2019-01-30T11:15:19.915Z,942.91
2019-01-30T11:16:19.875Z,942.89
2019-01-30T11:17:19.781Z,942.97
2019-01-30T11:18:19.784Z,942.91
2019-01-30T11:19:19.656Z,942.88
2019-01-30T11:20:21.947Z,942.86
2019-01-30T11:21:19.665Z,942.89
2019-01-30T11:22:19.480Z,942.89
2019-01-30T11:23:19.510Z,942.81
2019-01-30T11:24:19.368Z,942.77
2019-01-30T11:25:19.304Z,942.83
2019-01-30T11:26:19.236Z,942.79
2019-01-30T11:27:19.204Z,942.84
2019-01-30T11:28:19.175Z,942.81
2019-01-30T11:29:19.092Z,942.81
2019-01-30T11:30:19.048Z,942.83
2019-01-30T11:31:18.953Z,942.85
2019-01-30T11:32:18.894Z,942.86
2019-01-30T11:33:18.826Z,942.87
2019-01-30T11:34:18.779Z,942.88
2019-01-30T11:35:18.717Z,942.97
2019-01-30T11:36:18.636Z,942.88
2019-01-30T11:37:18.578Z,942.98
2019-01-30T11:38:18.518Z,942.97
2019-01-30T11:39:18.496Z,942.98
2019-01-30T11:40:18.404Z,942.94
2019-01-30T11:41:18.380Z,943.13
2019-01-30T11:42:18.280Z,943.07
2019-01-30T11:43:18.221Z,943.05
2019-01-30T11:44:18.164Z,943.09
2019-01-30T11:45:18.108Z,943.03
2019-01-30T11:46:18.075Z,943.19
2019-01-30T11:47:17.988Z,943.20
2019-01-30T11:48:17.932Z,943.11
2019-01-30T11:49:17.865Z,943.04
2019-01-30T11:50:17.814Z,943.02
2019-01-30T11:51:17.792Z,943.07
2019-01-30T11:52:17.731Z,943.01
2019-01-30T11:53:17.643Z,943.02
2019-01-30T11:54:17.580Z,943.04
2019-01-30T11:55:17.526Z,943.06
2019-01-30T11:56:17.503Z,942.96
2019-01-30T11:57:17.440Z,942.95
2019-01-30T11:58:17.355Z,942.96
2019-01-30T11:59:17.294Z,942.96
2019-01-30T12:00:17.234Z,942.95
2019-01-30T12:01:17.187Z,942.96
2019-01-30T12:02:17.159Z,942.93
2019-01-30T12:03:17.062Z,942.98
2019-01-30T12:04:18.108Z,943.01
2019-01-30T12:05:16.949Z,942.91
2019-01-30T12:06:16.894Z,942.96
2019-01-30T12:07:16.883Z,943.01
2019-01-30T12:08:16.832Z,943.08
2019-01-30T12:09:16.719Z,942.98
2019-01-30T12:10:16.660Z,942.93
2019-01-30T12:11:16.610Z,942.89
2019-01-30T12:12:16.546Z,942.90
2019-01-30T12:13:16.531Z,942.91
2019-01-30T12:14:16.429Z,942.90
2019-01-30T12:15:16.370Z,942.89
2019-01-30T12:16:16.310Z,942.91
2019-01-30T12:17:16.254Z,942.92
2019-01-30T12:18:16.229Z,942.92
2019-01-30T12:19:16.175Z,942.93
2019-01-30T12:20:16.080Z,942.92
2019-01-30T12:21:16.029Z,942.94
2019-01-30T12:22:15.993Z,943.00
2019-01-30T12:23:15.906Z,942.90
2019-01-30T12:24:15.849Z,942.93
2019-01-30T12:25:15.821Z,942.88
2019-01-30T12:26:15.731Z,942.98
2019-01-30T12:27:15.705Z,942.91